• Join FlightAware (Why Join?)
  • Login
  • US Flag 
02:39AM EDT


 

Airport Tracker/Info


-or-


 

Live Flight TrackerFlight Track Log ✈ DAL2352 ✈ 28-Jun-2013 ✈ KALB - KATL

Flight Track Log - Related Links

Times and Time Zones

All times are in EDT time to prevent confusion due to time zone crossing. See the DAL2352 flight status page for this flight to view local times or setup timezone preferences in your user account.

Time Position Orientation Groundspeed Altitude Reporting Facility
EDT Latitude Longitude Course Direction KTS MPH feet Rate Location/Type
06:19AM 42.7297 -73.8081 180° South 134 154 1,600  Level Boston Center
06:20AM 42.7003 -73.8300 209° Southwest 192 221 2,700 1,860 Climbing Boston Center
06:22AM 42.7342 -73.9467 292° West 245 282 6,000 2,640 Climbing Boston Center
06:23AM 42.4338 -74.2419 198° South  Level Estimated
06:23AM 42.8042 -74.0106 326° Northwest 269 310 9,400  Level Boston Center
06:24AM 42.3548 -74.3511 200° South  Level Estimated
06:24AM 42.8319 -74.1106 291° West 275 316 11,000  Level Boston Center
06:25AM 42.2756 -74.4601 180° South  Level Estimated
06:25AM 42.8361 -74.2550 272° West 339 390 12,200  Level Boston Center
06:26AM 42.7881 -74.3808 243° Southwest 352 405 14,300 2,100 Climbing Boston Center
06:27AM 42.6953 -74.4486 208° Southwest 361 415 16,500 2,280 Climbing Boston Center
06:28AM 42.5858 -74.3831 156° South 378 435 18,900 1,980 Climbing Boston Center
06:29AM 42.4978 -74.3042 147° Southeast 378 435 20,500 1,560 Climbing Boston Center
06:30AM 42.3972 -74.2000 143° Southeast 415 478 22,100 1,500 Climbing Boston Center
06:31AM 42.2819 -74.0986 147° Southeast 431 496 23,600 1,920 Climbing Boston Center
06:33AM 42.0597 -74.0425 169° South 422 486 28,000 1,920 Climbing Boston Center
06:34AM 41.9408 -74.0533 184° South 422 486 29,400 1,500 Climbing Boston Center
06:35AM 41.8239 -74.0614 183° South 422 486 31,000 1,200 Climbing Boston Center
06:36AM 41.7008 -74.0667 182° South 417 480 31,900 900 Climbing Boston Center
06:38AM 41.4503 -74.0897 184° South 423 487 33,900 600 Climbing New York Center
06:39AM 41.3583 -74.1708 214° Southwest 388 447 33,900  Level New York Center
06:40AM 41.2789 -74.2578 219° Southwest 404 465 34,000  Climbing New York Center
06:41AM 41.1967 -74.3583 223° Southwest 404 465 34,000  Level New York Center
06:42AM 41.1183 -74.4644 226° Southwest 404 465 34,000  Level New York Center
06:43AM 41.0361 -74.5644 223° Southwest 404 465 34,000  Level New York Center
06:44AM 40.9536 -74.6642 222° Southwest 404 465 34,000  Level New York Center
06:45AM 40.8731 -74.7694 225° Southwest 404 465 34,000  Level New York Center
06:46AM 40.7928 -74.8661 222° Southwest 404 465 34,000  Level New York Center
06:47AM 40.7122 -74.9653 223° Southwest 404 465 34,000  Level New York Center
06:48AM 40.6314 -75.0642 223° Southwest 404 465 34,000  Level New York Center
06:49AM 40.5506 -75.1656 224° Southwest 404 465 34,000  Level New York Center
06:50AM 40.4739 -75.2644 224° Southwest 399 459 34,000  Level New York Center
06:51AM 40.3911 -75.3600 221° Southwest 399 459 34,000  Level New York Center
06:52AM 40.3142 -75.4583 224° Southwest 394 453 34,000  Level New York Center
06:53AM 40.2306 -75.5722 226° Southwest 399 459 34,000  Level New York Center
06:54AM 40.1614 -75.6817 230° Southwest 394 453 34,000  Level New York Center
06:55AM 40.0919 -75.7933 231° Southwest 394 453 34,000  Level New York Center
06:56AM 40.0225 -75.9050 231° Southwest 399 459 34,000  Level New York Center
06:57AM 39.9533 -76.0136 230° Southwest 399 459 34,000  Level New York Center
06:59AM 39.8097 -76.2344 230° Southwest 397 457 34,000  Level Washington Center
07:00AM 39.7406 -76.3444 231° Southwest 402 463 34,000  Level Washington Center
07:01AM 39.6731 -76.4569 232° Southwest 402 463 34,000  Level Washington Center
07:02AM 39.5972 -76.5664 228° Southwest 402 463 34,000  Level Washington Center
07:03AM 39.5253 -76.6783 230° Southwest 411 473 34,000  Level Washington Center
07:04AM 39.4514 -76.7928 230° Southwest 411 473 34,000  Level Washington Center
07:05AM 39.3772 -76.9044 229° Southwest 411 473 34,000  Level Washington Center
07:06AM 39.3050 -77.0186 231° Southwest 411 473 34,000  Level Washington Center
07:07AM 39.2308 -77.1322 230° Southwest 411 473 34,000  Level Washington Center
07:08AM 39.1522 -77.2483 229° Southwest 422 486 34,000  Level Washington Center
07:09AM 39.0797 -77.3592 230° Southwest 427 491 34,000  Level Washington Center
07:10AM 39.0072 -77.4694 230° Southwest 427 491 34,000  Level Washington Center
07:11AM 38.9322 -77.5850 230° Southwest 422 486 34,000  Level Washington Center
07:12AM 38.8511 -77.7081 230° Southwest 422 486 34,000  Level Washington Center
07:13AM 38.7717 -77.8256 229° Southwest 428 493 34,000  Level Washington Center
07:14AM 38.7008 -77.9325 230° Southwest 421 484 34,000  Level Washington Center
07:15AM 38.6300 -78.0392 230° Southwest 415 478 34,000  Level Washington Center
07:16AM 38.5547 -78.1508 229° Southwest 409 471 34,000  Level Washington Center
07:17AM 38.4814 -78.2572 229° Southwest 409 471 34,000  Level Washington Center
07:18AM 38.4081 -78.3658 229° Southwest 409 471 34,000  Level Washington Center
07:19AM 38.3325 -78.4794 230° Southwest 409 471 34,000  Level Washington Center
07:20AM 38.2697 -78.5775 231° Southwest 403 464 34,000  Level Washington Center
07:21AM 38.1939 -78.6856 228° Southwest 408 470 34,000  Level Washington Center
07:22AM 38.1158 -78.7983 229° Southwest 414 476 34,000  Level Washington Center
07:23AM 38.0311 -78.9214 229° Southwest 425 489 34,000  Level Washington Center
07:24AM 37.9531 -79.0258 227° Southwest 425 489 34,000  Level Washington Center
07:25AM 37.8564 -79.1214 218° Southwest 425 489 34,000  Level Washington Center
07:26AM 37.7706 -79.2014 216° Southwest 433 498 34,000  Level Washington Center
07:27AM 37.6781 -79.2942 218° Southwest 433 498 34,000  Level Washington Center
07:28AM 37.5828 -79.4075 223° Southwest 427 491 34,000  Level Washington Center
07:29AM 37.5150 -79.5089 230° Southwest 432 497 34,000  Level Washington Center
07:30AM 37.4378 -79.6331 232° Southwest 436 502 34,000  Level Washington Center
07:31AM 37.3692 -79.7444 232° Southwest 436 502 34,000  Level Washington Center
07:32AM 37.2983 -79.8606 233° Southwest 431 496 34,000  Level Washington Center
07:33AM 37.2275 -79.9742 232° Southwest 431 496 34,000  Level Washington Center
07:34AM 37.1325 -80.1286 232° Southwest 433 498 34,000  Level Atlanta Center
07:35AM 37.0589 -80.2442 231° Southwest 433 498 34,000  Level Atlanta Center
07:36AM 36.9911 -80.3461 230° Southwest 433 498 34,000  Level Atlanta Center
07:37AM 36.9108 -80.4536 227° Southwest 427 491 34,000  Level Atlanta Center
07:38AM 36.8286 -80.5636 227° Southwest 427 491 34,000  Level Atlanta Center
07:39AM 36.7503 -80.6683 227° Southwest 432 497 34,000  Level Atlanta Center
07:40AM 36.6597 -80.7911 227° Southwest 432 497 34,000  Level Atlanta Center
07:41AM 36.5769 -80.9006 227° Southwest 432 497 34,000  Level Atlanta Center
07:42AM 36.4944 -81.0094 227° Southwest 432 497 34,000  Level Atlanta Center
07:43AM 36.4094 -81.1211 227° Southwest 432 497 34,000  Level Atlanta Center
07:44AM 36.3306 -81.2297 228° Southwest 432 497 34,000  Level Atlanta Center
07:45AM 36.2456 -81.3408 227° Southwest 438 504 34,000  Level Atlanta Center
07:46AM 36.1603 -81.4517 226° Southwest 438 504 34,000  Level Atlanta Center
07:47AM 36.0750 -81.5647 227° Southwest 443 510 34,000  Level Atlanta Center
07:48AM 35.9897 -81.6753 226° Southwest 443 510 34,000  Level Atlanta Center
07:49AM 35.9019 -81.7881 226° Southwest 450 518 34,000  Level Atlanta Center
07:50AM 35.8183 -81.8953 226° Southwest 450 518 34,000  Level Atlanta Center
07:51AM 35.7286 -82.0025 224° Southwest 450 518 34,000  Level Atlanta Center
07:52AM 35.6383 -82.1069 223° Southwest 456 525 34,000  Level Atlanta Center
07:53AM 35.5461 -82.2139 223° Southwest 451 519 34,000 -840 Level Atlanta Center
07:54AM 35.4661 -82.3072 224° Southwest 451 519 32,400 -1,320 Descending Atlanta Center
07:55AM 35.3736 -82.4136 223° Southwest 456 525 31,400 -1,020 Descending Atlanta Center
07:56AM 35.2831 -82.5147 222° Southwest 456 525 30,400 -720 Descending Atlanta Center
07:57AM 35.1947 -82.6181 224° Southwest 446 513 30,000 -240 Descending Atlanta Center
07:58AM 35.1019 -82.7211 222° Southwest 446 513 30,000  Level Atlanta Center
07:59AM 35.0092 -82.8217 222° Southwest 451 519 30,000  Level Atlanta Center
08:00AM 34.9078 -82.9269 220° Southwest 439 505 30,000  Level Atlanta Center
08:01AM 34.8253 -83.0292 226° Southwest 439 505 30,000 -360 Level Atlanta Center
08:02AM 34.7342 -83.1289 222° Southwest 439 505 29,300 -1,560 Descending Atlanta Center
08:03AM 34.6472 -83.2258 223° Southwest 432 497 26,900 -2,520 Descending Atlanta Center
08:04AM 34.5581 -83.3200 221° Southwest 432 497 24,300 -2,400 Descending Atlanta Center
08:05AM 34.4772 -83.4139 224° Southwest 419 482 22,100 -2,160 Descending Atlanta Center
08:06AM 34.3983 -83.5025 223° Southwest 399 459 20,000 -2,340 Descending Atlanta Center
08:07AM 34.3214 -83.5886 223° Southwest 388 447 17,500 -2,220 Descending Atlanta Center
08:08AM 34.2550 -83.6642 223° Southwest 372 428 15,600 -2,100 Descending Atlanta Center
08:09AM 34.1822 -83.7450 223° Southwest 363 418 13,300 -1,860 Descending Atlanta Center
08:10AM 34.1072 -83.8231 221° Southwest 363 418 11,900 -1,140 Descending Atlanta Center
08:11AM 34.0425 -83.8933 222° Southwest 334 384 11,100 -960 Descending Atlanta Center
08:12AM 33.9667 -83.9667 219° Southwest 303 349 9,900 -1,020 Descending Atlanta TRACON
08:13AM 33.8833 -83.9833 189° South 310 357 9,000 -780 Descending Atlanta TRACON
08:14AM 33.8167 -83.9833 180° South 305 351 8,500 -540 Descending Atlanta TRACON
08:15AM 33.7333 -83.9833 180° South 299 344 8,000 -900 Descending Atlanta TRACON
08:16AM 33.6500 -84.0000 189° South 291 335 6,700 -1,080 Descending Atlanta TRACON
08:17AM 33.6333 -84.0667 253° West 221 254 6,000 -780 Descending Atlanta TRACON
08:18AM 33.6333 -84.1500 270° West 218 251 5,300 -720 Descending Atlanta TRACON